sensor_id;sensor_type;location;lat;lon;timestamp;P1;durP1;ratioP1;P2;durP2;ratioP2
58928;SDS011;44713;53.378;10.022;2023-07-29T00:00:40;0.38;;;0.28;;
58928;SDS011;44713;53.378;10.022;2023-07-29T00:03:06;0.20;;;0.17;;
58928;SDS011;44713;53.378;10.022;2023-07-29T00:05:31;0.32;;;0.32;;
58928;SDS011;44713;53.378;10.022;2023-07-29T00:07:57;0.50;;;0.30;;
58928;SDS011;44713;53.378;10.022;2023-07-29T00:10:22;0.22;;;0.20;;
58928;SDS011;44713;53.378;10.022;2023-07-29T00:12:48;0.20;;;0.20;;
58928;SDS011;44713;53.378;10.022;2023-07-29T00:15:13;0.30;;;0.30;;
58928;SDS011;44713;53.378;10.022;2023-07-29T00:17:38;0.40;;;0.30;;
58928;SDS011;44713;53.378;10.022;2023-07-29T00:20:04;0.40;;;0.40;;
58928;SDS011;44713;53.378;10.022;2023-07-29T00:22:30;0.52;;;0.40;;
58928;SDS011;44713;53.378;10.022;2023-07-29T00:24:56;0.35;;;0.35;;
58928;SDS011;44713;53.378;10.022;2023-07-29T00:27:22;0.45;;;0.40;;
58928;SDS011;44713;53.378;10.022;2023-07-29T00:29:48;0.32;;;0.30;;
58928;SDS011;44713;53.378;10.022;2023-07-29T00:32:13;0.30;;;0.30;;
58928;SDS011;44713;53.378;10.022;2023-07-29T00:34:39;0.25;;;0.25;;
58928;SDS011;44713;53.378;10.022;2023-07-29T00:37:04;0.22;;;0.22;;
58928;SDS011;44713;53.378;10.022;2023-07-29T00:39:31;0.40;;;0.40;;
58928;SDS011;44713;53.378;10.022;2023-07-29T00:41:56;0.40;;;0.40;;
58928;SDS011;44713;53.378;10.022;2023-07-29T00:44:22;0.43;;;0.40;;
58928;SDS011;44713;53.378;10.022;2023-07-29T00:46:47;0.40;;;0.30;;
58928;SDS011;44713;53.378;10.022;2023-07-29T00:49:19;0.30;;;0.30;;
58928;SDS011;44713;53.378;10.022;2023-07-29T00:51:45;0.20;;;0.20;;
58928;SDS011;44713;53.378;10.022;2023-07-29T00:54:11;0.45;;;0.30;;
58928;SDS011;44713;53.378;10.022;2023-07-29T00:56:39;0.28;;;0.28;;
58928;SDS011;44713;53.378;10.022;2023-07-29T00:59:05;1.40;;;0.35;;
58928;SDS011;44713;53.378;10.022;2023-07-29T01:01:30;0.40;;;0.40;;
58928;SDS011;44713;53.378;10.022;2023-07-29T01:03:56;0.30;;;0.30;;
58928;SDS011;44713;53.378;10.022;2023-07-29T01:06:34;0.40;;;0.38;;
58928;SDS011;44713;53.378;10.022;2023-07-29T01:12:25;0.38;;;0.30;;
58928;SDS011;44713;53.378;10.022;2023-07-29T01:15:03;0.70;;;0.50;;
58928;SDS011;44713;53.378;10.022;2023-07-29T01:17:55;0.73;;;0.60;;
58928;SDS011;44713;53.378;10.022;2023-07-29T01:20:29;0.43;;;0.40;;
58928;SDS011;44713;53.378;10.022;2023-07-29T01:22:57;0.60;;;0.50;;
58928;SDS011;44713;53.378;10.022;2023-07-29T01:25:23;0.28;;;0.28;;
58928;SDS011;44713;53.378;10.022;2023-07-29T01:27:48;0.30;;;0.30;;
58928;SDS011;44713;53.378;10.022;2023-07-29T01:30:16;0.22;;;0.22;;
58928;SDS011;44713;53.378;10.022;2023-07-29T01:32:43;0.20;;;0.20;;
58928;SDS011;44713;53.378;10.022;2023-07-29T01:35:36;0.30;;;0.20;;
58928;SDS011;44713;53.378;10.022;2023-07-29T01:38:13;0.43;;;0.35;;
58928;SDS011;44713;53.378;10.022;2023-07-29T01:40:39;0.40;;;0.40;;
58928;SDS011;44713;53.378;10.022;2023-07-29T01:43:05;0.65;;;0.60;;
58928;SDS011;44713;53.378;10.022;2023-07-29T01:45:33;0.35;;;0.25;;
58928;SDS011;44713;53.378;10.022;2023-07-29T01:48:02;0.55;;;0.43;;
58928;SDS011;44713;53.378;10.022;2023-07-29T01:50:29;0.35;;;0.35;;
58928;SDS011;44713;53.378;10.022;2023-07-29T01:52:54;0.52;;;0.30;;
58928;SDS011;44713;53.378;10.022;2023-07-29T01:55:19;0.43;;;0.32;;
58928;SDS011;44713;53.378;10.022;2023-07-29T01:57:45;0.88;;;0.30;;
58928;SDS011;44713;53.378;10.022;2023-07-29T02:00:12;0.70;;;0.60;;
58928;SDS011;44713;53.378;10.022;2023-07-29T02:02:40;0.20;;;0.20;;
58928;SDS011;44713;53.378;10.022;2023-07-29T02:05:05;0.40;;;0.40;;
58928;SDS011;44713;53.378;10.022;2023-07-29T02:07:31;0.38;;;0.30;;
58928;SDS011;44713;53.378;10.022;2023-07-29T02:09:56;0.88;;;0.35;;
58928;SDS011;44713;53.378;10.022;2023-07-29T02:12:21;0.20;;;0.20;;
58928;SDS011;44713;53.378;10.022;2023-07-29T02:14:47;0.43;;;0.30;;
58928;SDS011;44713;53.378;10.022;2023-07-29T02:17:12;0.30;;;0.30;;
58928;SDS011;44713;53.378;10.022;2023-07-29T02:19:37;0.50;;;0.40;;
58928;SDS011;44713;53.378;10.022;2023-07-29T02:22:03;0.30;;;0.30;;
58928;SDS011;44713;53.378;10.022;2023-07-29T02:24:28;0.55;;;0.50;;
58928;SDS011;44713;53.378;10.022;2023-07-29T02:26:54;0.20;;;0.20;;
58928;SDS011;44713;53.378;10.022;2023-07-29T02:29:19;0.52;;;0.40;;
58928;SDS011;44713;53.378;10.022;2023-07-29T02:31:45;0.47;;;0.43;;
58928;SDS011;44713;53.378;10.022;2023-07-29T02:34:10;1.08;;;0.47;;
58928;SDS011;44713;53.378;10.022;2023-07-29T02:36:35;0.65;;;0.45;;
58928;SDS011;44713;53.378;10.022;2023-07-29T02:39:03;0.60;;;0.50;;
58928;SDS011;44713;53.378;10.022;2023-07-29T02:41:28;0.88;;;0.70;;
58928;SDS011;44713;53.378;10.022;2023-07-29T02:43:53;1.17;;;0.63;;
58928;SDS011;44713;53.378;10.022;2023-07-29T02:46:19;0.90;;;0.40;;
58928;SDS011;44713;53.378;10.022;2023-07-29T02:48:44;0.55;;;0.40;;
58928;SDS011;44713;53.378;10.022;2023-07-29T02:51:10;0.65;;;0.50;;
58928;SDS011;44713;53.378;10.022;2023-07-29T02:53:35;0.95;;;0.60;;
58928;SDS011;44713;53.378;10.022;2023-07-29T02:56:04;0.95;;;0.73;;
58928;SDS011;44713;53.378;10.022;2023-07-29T02:58:29;1.30;;;0.57;;
58928;SDS011;44713;53.378;10.022;2023-07-29T03:01:05;0.80;;;0.65;;
58928;SDS011;44713;53.378;10.022;2023-07-29T03:03:31;0.90;;;0.85;;
58928;SDS011;44713;53.378;10.022;2023-07-29T03:06:04;0.98;;;0.80;;
58928;SDS011;44713;53.378;10.022;2023-07-29T03:10:57;0.73;;;0.65;;
58928;SDS011;44713;53.378;10.022;2023-07-29T03:13:23;1.15;;;0.98;;
58928;SDS011;44713;53.378;10.022;2023-07-29T03:15:48;1.15;;;0.70;;
58928;SDS011;44713;53.378;10.022;2023-07-29T03:18:14;0.90;;;0.75;;
58928;SDS011;44713;53.378;10.022;2023-07-29T03:20:40;1.25;;;0.68;;
58928;SDS011;44713;53.378;10.022;2023-07-29T03:23:05;0.70;;;0.55;;
58928;SDS011;44713;53.378;10.022;2023-07-29T03:25:31;0.68;;;0.65;;
58928;SDS011;44713;53.378;10.022;2023-07-29T03:27:57;0.60;;;0.60;;
58928;SDS011;44713;53.378;10.022;2023-07-29T03:30:22;0.95;;;0.75;;
58928;SDS011;44713;53.378;10.022;2023-07-29T03:32:49;0.70;;;0.50;;
58928;SDS011;44713;53.378;10.022;2023-07-29T03:35:15;0.82;;;0.63;;
58928;SDS011;44713;53.378;10.022;2023-07-29T03:37:40;1.00;;;0.70;;
58928;SDS011;44713;53.378;10.022;2023-07-29T03:40:06;0.80;;;0.80;;
58928;SDS011;44713;53.378;10.022;2023-07-29T03:42:32;0.85;;;0.70;;
58928;SDS011;44713;53.378;10.022;2023-07-29T03:44:58;1.15;;;0.82;;
58928;SDS011;44713;53.378;10.022;2023-07-29T03:47:23;1.08;;;0.98;;
58928;SDS011;44713;53.378;10.022;2023-07-29T03:49:48;1.02;;;0.77;;
58928;SDS011;44713;53.378;10.022;2023-07-29T03:52:17;1.08;;;0.80;;
58928;SDS011;44713;53.378;10.022;2023-07-29T03:54:43;1.60;;;1.00;;
58928;SDS011;44713;53.378;10.022;2023-07-29T03:57:08;0.98;;;0.80;;
58928;SDS011;44713;53.378;10.022;2023-07-29T03:59:33;1.48;;;1.00;;
58928;SDS011;44713;53.378;10.022;2023-07-29T04:01:59;0.93;;;0.75;;
58928;SDS011;44713;53.378;10.022;2023-07-29T04:04:24;1.38;;;0.95;;
58928;SDS011;44713;53.378;10.022;2023-07-29T04:06:49;1.00;;;0.90;;
58928;SDS011;44713;53.378;10.022;2023-07-29T04:09:15;1.13;;;0.90;;
58928;SDS011;44713;53.378;10.022;2023-07-29T04:11:40;1.38;;;0.80;;
58928;SDS011;44713;53.378;10.022;2023-07-29T04:14:06;0.98;;;0.77;;
58928;SDS011;44713;53.378;10.022;2023-07-29T04:16:31;2.25;;;1.42;;
58928;SDS011;44713;53.378;10.022;2023-07-29T04:18:57;1.25;;;1.00;;
58928;SDS011;44713;53.378;10.022;2023-07-29T04:21:22;1.67;;;1.20;;
58928;SDS011;44713;53.378;10.022;2023-07-29T04:23:47;1.20;;;1.10;;
58928;SDS011;44713;53.378;10.022;2023-07-29T04:26:13;1.80;;;1.20;;
58928;SDS011;44713;53.378;10.022;2023-07-29T04:28:38;1.90;;;1.70;;
58928;SDS011;44713;53.378;10.022;2023-07-29T04:31:04;1.60;;;1.20;;
58928;SDS011;44713;53.378;10.022;2023-07-29T04:33:29;1.52;;;1.25;;
58928;SDS011;44713;53.378;10.022;2023-07-29T04:35:55;2.80;;;1.55;;
58928;SDS011;44713;53.378;10.022;2023-07-29T04:38:21;0.93;;;0.82;;
58928;SDS011;44713;53.378;10.022;2023-07-29T04:40:48;2.78;;;1.60;;
58928;SDS011;44713;53.378;10.022;2023-07-29T04:43:14;2.13;;;1.13;;
58928;SDS011;44713;53.378;10.022;2023-07-29T04:45:45;1.50;;;1.10;;
58928;SDS011;44713;53.378;10.022;2023-07-29T04:48:11;2.08;;;1.63;;
58928;SDS011;44713;53.378;10.022;2023-07-29T04:50:36;1.60;;;1.08;;
58928;SDS011;44713;53.378;10.022;2023-07-29T04:53:01;1.27;;;1.13;;
58928;SDS011;44713;53.378;10.022;2023-07-29T04:55:27;1.90;;;1.30;;
58928;SDS011;44713;53.378;10.022;2023-07-29T04:57:52;2.03;;;1.10;;
58928;SDS011;44713;53.378;10.022;2023-07-29T05:00:18;1.00;;;0.90;;
58928;SDS011;44713;53.378;10.022;2023-07-29T05:02:44;1.83;;;1.13;;
58928;SDS011;44713;53.378;10.022;2023-07-29T05:05:10;1.02;;;0.82;;
58928;SDS011;44713;53.378;10.022;2023-07-29T05:07:35;1.27;;;0.95;;
58928;SDS011;44713;53.378;10.022;2023-07-29T05:10:01;1.08;;;0.90;;
58928;SDS011;44713;53.378;10.022;2023-07-29T05:12:26;1.88;;;1.60;;
58928;SDS011;44713;53.378;10.022;2023-07-29T05:14:51;1.20;;;1.10;;
58928;SDS011;44713;53.378;10.022;2023-07-29T05:17:17;2.10;;;1.20;;
58928;SDS011;44713;53.378;10.022;2023-07-29T05:19:42;1.75;;;1.27;;
58928;SDS011;44713;53.378;10.022;2023-07-29T05:22:08;1.35;;;1.00;;
58928;SDS011;44713;53.378;10.022;2023-07-29T05:24:35;1.58;;;1.27;;
58928;SDS011;44713;53.378;10.022;2023-07-29T05:27:00;1.17;;;1.08;;
58928;SDS011;44713;53.378;10.022;2023-07-29T05:29:25;2.17;;;1.63;;
58928;SDS011;44713;53.378;10.022;2023-07-29T05:31:51;1.77;;;1.40;;
58928;SDS011;44713;53.378;10.022;2023-07-29T05:34:18;2.22;;;1.30;;
58928;SDS011;44713;53.378;10.022;2023-07-29T05:36:43;1.73;;;1.38;;
58928;SDS011;44713;53.378;10.022;2023-07-29T05:39:08;1.63;;;1.50;;
58928;SDS011;44713;53.378;10.022;2023-07-29T05:41:34;1.30;;;0.88;;
58928;SDS011;44713;53.378;10.022;2023-07-29T05:43:59;1.23;;;1.13;;
58928;SDS011;44713;53.378;10.022;2023-07-29T05:46:24;1.85;;;1.30;;
58928;SDS011;44713;53.378;10.022;2023-07-29T05:48:50;2.08;;;1.35;;
58928;SDS011;44713;53.378;10.022;2023-07-29T05:51:15;1.40;;;1.30;;
58928;SDS011;44713;53.378;10.022;2023-07-29T05:53:40;1.23;;;1.13;;
58928;SDS011;44713;53.378;10.022;2023-07-29T05:56:06;3.17;;;1.40;;
58928;SDS011;44713;53.378;10.022;2023-07-29T05:58:31;1.38;;;1.08;;
58928;SDS011;44713;53.378;10.022;2023-07-29T06:00:57;1.35;;;0.98;;
58928;SDS011;44713;53.378;10.022;2023-07-29T06:03:23;2.20;;;1.23;;
58928;SDS011;44713;53.378;10.022;2023-07-29T06:05:50;2.55;;;1.10;;
58928;SDS011;44713;53.378;10.022;2023-07-29T06:08:16;1.92;;;1.25;;
58928;SDS011;44713;53.378;10.022;2023-07-29T06:10:41;1.70;;;1.02;;
58928;SDS011;44713;53.378;10.022;2023-07-29T06:13:06;2.38;;;1.30;;
58928;SDS011;44713;53.378;10.022;2023-07-29T06:15:31;1.30;;;1.20;;
58928;SDS011;44713;53.378;10.022;2023-07-29T06:17:57;1.20;;;0.90;;
58928;SDS011;44713;53.378;10.022;2023-07-29T06:20:22;1.17;;;1.00;;
58928;SDS011;44713;53.378;10.022;2023-07-29T06:22:48;0.88;;;0.80;;
58928;SDS011;44713;53.378;10.022;2023-07-29T06:25:13;1.63;;;1.08;;
58928;SDS011;44713;53.378;10.022;2023-07-29T06:27:38;1.52;;;1.27;;
58928;SDS011;44713;53.378;10.022;2023-07-29T06:30:04;1.20;;;1.02;;
58928;SDS011;44713;53.378;10.022;2023-07-29T06:32:30;1.15;;;0.85;;
58928;SDS011;44713;53.378;10.022;2023-07-29T06:34:55;1.38;;;1.25;;
58928;SDS011;44713;53.378;10.022;2023-07-29T06:37:20;1.33;;;1.08;;
58928;SDS011;44713;53.378;10.022;2023-07-29T06:39:46;1.20;;;0.88;;
58928;SDS011;44713;53.378;10.022;2023-07-29T06:42:12;1.50;;;1.13;;
58928;SDS011;44713;53.378;10.022;2023-07-29T06:44:37;1.58;;;1.10;;
58928;SDS011;44713;53.378;10.022;2023-07-29T06:47:03;1.33;;;0.70;;
58928;SDS011;44713;53.378;10.022;2023-07-29T06:49:28;1.63;;;0.73;;
58928;SDS011;44713;53.378;10.022;2023-07-29T06:51:54;0.85;;;0.63;;
58928;SDS011;44713;53.378;10.022;2023-07-29T06:54:19;1.08;;;0.85;;
58928;SDS011;44713;53.378;10.022;2023-07-29T06:56:49;1.05;;;0.90;;
58928;SDS011;44713;53.378;10.022;2023-07-29T06:59:14;1.15;;;1.00;;
58928;SDS011;44713;53.378;10.022;2023-07-29T07:01:40;1.42;;;0.80;;
58928;SDS011;44713;53.378;10.022;2023-07-29T07:04:05;0.93;;;0.80;;
58928;SDS011;44713;53.378;10.022;2023-07-29T07:06:30;1.13;;;0.90;;
58928;SDS011;44713;53.378;10.022;2023-07-29T07:08:56;1.05;;;0.73;;
58928;SDS011;44713;53.378;10.022;2023-07-29T07:11:21;1.20;;;0.90;;
58928;SDS011;44713;53.378;10.022;2023-07-29T07:13:46;0.98;;;0.70;;
58928;SDS011;44713;53.378;10.022;2023-07-29T07:16:12;0.82;;;0.70;;
58928;SDS011;44713;53.378;10.022;2023-07-29T07:18:37;2.25;;;0.75;;
58928;SDS011;44713;53.378;10.022;2023-07-29T07:21:02;0.82;;;0.70;;
58928;SDS011;44713;53.378;10.022;2023-07-29T07:23:28;0.93;;;0.77;;
58928;SDS011;44713;53.378;10.022;2023-07-29T07:25:53;0.85;;;0.68;;
58928;SDS011;44713;53.378;10.022;2023-07-29T07:28:18;0.82;;;0.70;;
58928;SDS011;44713;53.378;10.022;2023-07-29T07:30:44;0.40;;;0.40;;
58928;SDS011;44713;53.378;10.022;2023-07-29T07:33:09;0.90;;;0.63;;
58928;SDS011;44713;53.378;10.022;2023-07-29T07:35:34;1.30;;;1.02;;
58928;SDS011;44713;53.378;10.022;2023-07-29T07:38:00;1.23;;;0.80;;
58928;SDS011;44713;53.378;10.022;2023-07-29T07:40:29;0.70;;;0.70;;
58928;SDS011;44713;53.378;10.022;2023-07-29T07:42:55;0.43;;;0.43;;
58928;SDS011;44713;53.378;10.022;2023-07-29T07:45:20;0.63;;;0.57;;
58928;SDS011;44713;53.378;10.022;2023-07-29T07:47:46;0.57;;;0.50;;
58928;SDS011;44713;53.378;10.022;2023-07-29T07:50:11;0.88;;;0.60;;
58928;SDS011;44713;53.378;10.022;2023-07-29T07:52:36;0.77;;;0.65;;
58928;SDS011;44713;53.378;10.022;2023-07-29T07:55:02;0.40;;;0.40;;
58928;SDS011;44713;53.378;10.022;2023-07-29T07:57:27;0.45;;;0.45;;
58928;SDS011;44713;53.378;10.022;2023-07-29T07:59:53;1.35;;;0.65;;
58928;SDS011;44713;53.378;10.022;2023-07-29T08:02:18;0.75;;;0.60;;
58928;SDS011;44713;53.378;10.022;2023-07-29T08:04:44;0.40;;;0.40;;
58928;SDS011;44713;53.378;10.022;2023-07-29T08:07:09;0.60;;;0.60;;
58928;SDS011;44713;53.378;10.022;2023-07-29T08:09:34;0.50;;;0.45;;
58928;SDS011;44713;53.378;10.022;2023-07-29T08:12:00;0.60;;;0.60;;
58928;SDS011;44713;53.378;10.022;2023-07-29T08:14:25;0.63;;;0.57;;
58928;SDS011;44713;53.378;10.022;2023-07-29T08:16:51;0.75;;;0.55;;
58928;SDS011;44713;53.378;10.022;2023-07-29T08:19:17;0.60;;;0.52;;
58928;SDS011;44713;53.378;10.022;2023-07-29T08:21:43;0.82;;;0.77;;
58928;SDS011;44713;53.378;10.022;2023-07-29T08:24:08;1.13;;;0.60;;
58928;SDS011;44713;53.378;10.022;2023-07-29T08:26:33;0.68;;;0.52;;
58928;SDS011;44713;53.378;10.022;2023-07-29T08:28:59;0.65;;;0.52;;
58928;SDS011;44713;53.378;10.022;2023-07-29T08:31:24;1.00;;;0.75;;
58928;SDS011;44713;53.378;10.022;2023-07-29T08:33:49;1.13;;;0.70;;
58928;SDS011;44713;53.378;10.022;2023-07-29T08:36:14;0.82;;;0.63;;
58928;SDS011;44713;53.378;10.022;2023-07-29T08:38:40;0.90;;;0.60;;
58928;SDS011;44713;53.378;10.022;2023-07-29T08:41:09;0.70;;;0.60;;
58928;SDS011;44713;53.378;10.022;2023-07-29T08:43:39;0.45;;;0.45;;
58928;SDS011;44713;53.378;10.022;2023-07-29T08:46:21;0.90;;;0.70;;
58928;SDS011;44713;53.378;10.022;2023-07-29T08:48:46;0.43;;;0.40;;
58928;SDS011;44713;53.378;10.022;2023-07-29T08:51:12;1.10;;;0.70;;
58928;SDS011;44713;53.378;10.022;2023-07-29T08:53:38;0.73;;;0.55;;
58928;SDS011;44713;53.378;10.022;2023-07-29T08:56:04;1.27;;;0.88;;
58928;SDS011;44713;53.378;10.022;2023-07-29T08:58:31;0.80;;;0.70;;
58928;SDS011;44713;53.378;10.022;2023-07-29T09:00:57;0.80;;;0.80;;
58928;SDS011;44713;53.378;10.022;2023-07-29T09:03:22;0.88;;;0.68;;
58928;SDS011;44713;53.378;10.022;2023-07-29T09:05:48;0.60;;;0.60;;
58928;SDS011;44713;53.378;10.022;2023-07-29T09:08:14;0.52;;;0.52;;
58928;SDS011;44713;53.378;10.022;2023-07-29T09:10:39;0.73;;;0.70;;
58928;SDS011;44713;53.378;10.022;2023-07-29T09:13:05;1.30;;;1.02;;
58928;SDS011;44713;53.378;10.022;2023-07-29T09:15:32;0.45;;;0.45;;
58928;SDS011;44713;53.378;10.022;2023-07-29T09:17:58;0.70;;;0.70;;
58928;SDS011;44713;53.378;10.022;2023-07-29T09:20:27;1.10;;;0.98;;
58928;SDS011;44713;53.378;10.022;2023-07-29T09:22:54;1.00;;;0.90;;
58928;SDS011;44713;53.378;10.022;2023-07-29T09:25:26;0.60;;;0.60;;
58928;SDS011;44713;53.378;10.022;2023-07-29T09:27:55;1.48;;;1.02;;
58928;SDS011;44713;53.378;10.022;2023-07-29T09:30:24;0.60;;;0.60;;
58928;SDS011;44713;53.378;10.022;2023-07-29T09:32:54;0.73;;;0.63;;
58928;SDS011;44713;53.378;10.022;2023-07-29T09:35:23;0.70;;;0.65;;
58928;SDS011;44713;53.378;10.022;2023-07-29T09:37:49;1.23;;;0.82;;
58928;SDS011;44713;53.378;10.022;2023-07-29T09:40:17;0.70;;;0.60;;
58928;SDS011;44713;53.378;10.022;2023-07-29T09:42:49;0.45;;;0.43;;
58928;SDS011;44713;53.378;10.022;2023-07-29T09:45:20;0.70;;;0.60;;
58928;SDS011;44713;53.378;10.022;2023-07-29T09:47:49;0.43;;;0.43;;
58928;SDS011;44713;53.378;10.022;2023-07-29T09:50:15;0.60;;;0.52;;
58928;SDS011;44713;53.378;10.022;2023-07-29T09:52:41;0.50;;;0.50;;
58928;SDS011;44713;53.378;10.022;2023-07-29T09:55:07;0.55;;;0.55;;
58928;SDS011;44713;53.378;10.022;2023-07-29T09:57:34;0.80;;;0.80;;
58928;SDS011;44713;53.378;10.022;2023-07-29T10:00:01;0.50;;;0.50;;
58928;SDS011;44713;53.378;10.022;2023-07-29T10:02:30;0.63;;;0.63;;
58928;SDS011;44713;53.378;10.022;2023-07-29T10:04:56;0.47;;;0.40;;
58928;SDS011;44713;53.378;10.022;2023-07-29T10:07:22;0.45;;;0.45;;
58928;SDS011;44713;53.378;10.022;2023-07-29T10:09:47;1.40;;;0.80;;
58928;SDS011;44713;53.378;10.022;2023-07-29T10:12:16;0.38;;;0.38;;
58928;SDS011;44713;53.378;10.022;2023-07-29T10:14:42;0.80;;;0.50;;
58928;SDS011;44713;53.378;10.022;2023-07-29T10:17:08;0.38;;;0.30;;
58928;SDS011;44713;53.378;10.022;2023-07-29T10:19:34;0.65;;;0.47;;
58928;SDS011;44713;53.378;10.022;2023-07-29T10:22:02;0.57;;;0.57;;
58928;SDS011;44713;53.378;10.022;2023-07-29T10:24:32;0.68;;;0.40;;
58928;SDS011;44713;53.378;10.022;2023-07-29T10:26:59;0.32;;;0.32;;
58928;SDS011;44713;53.378;10.022;2023-07-29T10:29:28;0.40;;;0.40;;
58928;SDS011;44713;53.378;10.022;2023-07-29T10:32:01;0.65;;;0.60;;
58928;SDS011;44713;53.378;10.022;2023-07-29T10:34:27;0.30;;;0.30;;
58928;SDS011;44713;53.378;10.022;2023-07-29T10:36:53;0.50;;;0.43;;
58928;SDS011;44713;53.378;10.022;2023-07-29T10:39:19;0.75;;;0.57;;
58928;SDS011;44713;53.378;10.022;2023-07-29T10:42:00;0.47;;;0.40;;
58928;SDS011;44713;53.378;10.022;2023-07-29T10:47:13;0.32;;;0.32;;
58928;SDS011;44713;53.378;10.022;2023-07-29T10:49:45;0.60;;;0.60;;
58928;SDS011;44713;53.378;10.022;2023-07-29T10:55:01;0.40;;;0.38;;
58928;SDS011;44713;53.378;10.022;2023-07-29T11:00:05;0.30;;;0.30;;
58928;SDS011;44713;53.378;10.022;2023-07-29T11:02:36;0.60;;;0.40;;
58928;SDS011;44713;53.378;10.022;2023-07-29T11:05:17;0.22;;;0.22;;
58928;SDS011;44713;53.378;10.022;2023-07-29T11:07:43;0.38;;;0.22;;
58928;SDS011;44713;53.378;10.022;2023-07-29T11:10:11;0.40;;;0.40;;
58928;SDS011;44713;53.378;10.022;2023-07-29T11:12:40;0.47;;;0.40;;
58928;SDS011;44713;53.378;10.022;2023-07-29T11:17:39;0.40;;;0.30;;
58928;SDS011;44713;53.378;10.022;2023-07-29T11:20:07;0.32;;;0.22;;
58928;SDS011;44713;53.378;10.022;2023-07-29T11:22:33;0.22;;;0.22;;
58928;SDS011;44713;53.378;10.022;2023-07-29T11:24:59;0.30;;;0.30;;
58928;SDS011;44713;53.378;10.022;2023-07-29T11:27:25;0.40;;;0.32;;
58928;SDS011;44713;53.378;10.022;2023-07-29T11:29:50;0.20;;;0.20;;
58928;SDS011;44713;53.378;10.022;2023-07-29T11:32:15;0.20;;;0.20;;
58928;SDS011;44713;53.378;10.022;2023-07-29T11:34:42;0.40;;;0.35;;
58928;SDS011;44713;53.378;10.022;2023-07-29T11:37:09;0.47;;;0.47;;
58928;SDS011;44713;53.378;10.022;2023-07-29T11:39:39;1.08;;;0.55;;
58928;SDS011;44713;53.378;10.022;2023-07-29T11:42:06;0.80;;;0.68;;
58928;SDS011;44713;53.378;10.022;2023-07-29T11:44:32;0.73;;;0.57;;
58928;SDS011;44713;53.378;10.022;2023-07-29T11:46:57;0.50;;;0.50;;
58928;SDS011;44713;53.378;10.022;2023-07-29T11:49:22;0.60;;;0.55;;
58928;SDS011;44713;53.378;10.022;2023-07-29T11:51:47;0.57;;;0.40;;
58928;SDS011;44713;53.378;10.022;2023-07-29T11:54:13;0.32;;;0.32;;
58928;SDS011;44713;53.378;10.022;2023-07-29T11:56:40;0.50;;;0.50;;
58928;SDS011;44713;53.378;10.022;2023-07-29T11:59:05;0.43;;;0.40;;
58928;SDS011;44713;53.378;10.022;2023-07-29T12:01:31;0.60;;;0.40;;
58928;SDS011;44713;53.378;10.022;2023-07-29T12:03:57;0.82;;;0.55;;
58928;SDS011;44713;53.378;10.022;2023-07-29T12:06:24;0.40;;;0.40;;
58928;SDS011;44713;53.378;10.022;2023-07-29T12:08:50;0.38;;;0.25;;
58928;SDS011;44713;53.378;10.022;2023-07-29T12:11:16;0.57;;;0.38;;
58928;SDS011;44713;53.378;10.022;2023-07-29T12:13:42;0.30;;;0.30;;
58928;SDS011;44713;53.378;10.022;2023-07-29T12:16:09;0.63;;;0.43;;
58928;SDS011;44713;53.378;10.022;2023-07-29T12:18:35;0.30;;;0.28;;
58928;SDS011;44713;53.378;10.022;2023-07-29T12:21:01;0.30;;;0.30;;
58928;SDS011;44713;53.378;10.022;2023-07-29T12:23:28;0.38;;;0.30;;
58928;SDS011;44713;53.378;10.022;2023-07-29T12:25:58;0.32;;;0.20;;
58928;SDS011;44713;53.378;10.022;2023-07-29T12:28:24;0.40;;;0.40;;
58928;SDS011;44713;53.378;10.022;2023-07-29T12:30:53;0.40;;;0.30;;
58928;SDS011;44713;53.378;10.022;2023-07-29T12:33:35;0.63;;;0.43;;
58928;SDS011;44713;53.378;10.022;2023-07-29T12:36:02;0.10;;;0.10;;
58928;SDS011;44713;53.378;10.022;2023-07-29T12:38:28;0.30;;;0.30;;
58928;SDS011;44713;53.378;10.022;2023-07-29T12:40:54;0.20;;;0.20;;
58928;SDS011;44713;53.378;10.022;2023-07-29T12:43:20;0.25;;;0.25;;
58928;SDS011;44713;53.378;10.022;2023-07-29T12:45:45;0.20;;;0.20;;
58928;SDS011;44713;53.378;10.022;2023-07-29T12:48:11;0.22;;;0.20;;
58928;SDS011;44713;53.378;10.022;2023-07-29T12:50:37;0.20;;;0.20;;
58928;SDS011;44713;53.378;10.022;2023-07-29T12:53:05;0.30;;;0.30;;
58928;SDS011;44713;53.378;10.022;2023-07-29T12:55:31;0.40;;;0.30;;
58928;SDS011;44713;53.378;10.022;2023-07-29T12:57:56;0.15;;;0.15;;
58928;SDS011;44713;53.378;10.022;2023-07-29T13:00:24;0.30;;;0.30;;
58928;SDS011;44713;53.378;10.022;2023-07-29T13:02:49;0.60;;;0.30;;
58928;SDS011;44713;53.378;10.022;2023-07-29T13:05:15;0.17;;;0.13;;
58928;SDS011;44713;53.378;10.022;2023-07-29T13:07:42;0.25;;;0.17;;
58928;SDS011;44713;53.378;10.022;2023-07-29T13:10:08;0.22;;;0.22;;
58928;SDS011;44713;53.378;10.022;2023-07-29T13:12:34;0.43;;;0.32;;
58928;SDS011;44713;53.378;10.022;2023-07-29T13:14:59;0.17;;;0.17;;
58928;SDS011;44713;53.378;10.022;2023-07-29T13:17:25;0.65;;;0.22;;
58928;SDS011;44713;53.378;10.022;2023-07-29T13:19:50;0.17;;;0.17;;
58928;SDS011;44713;53.378;10.022;2023-07-29T13:22:16;0.22;;;0.17;;
58928;SDS011;44713;53.378;10.022;2023-07-29T13:24:41;2.08;;;0.20;;
58928;SDS011;44713;53.378;10.022;2023-07-29T13:27:06;0.17;;;0.17;;
58928;SDS011;44713;53.378;10.022;2023-07-29T13:29:32;0.17;;;0.17;;
58928;SDS011;44713;53.378;10.022;2023-07-29T13:31:57;0.20;;;0.20;;
